Hlavní strana
METAR-TAF:

METAR-TAF

Letiště :

Selma, Alabama, Spojené státy americké

zeměpisná šířka: 32-20-38N, zeměpisná délka: 086-59-16W, výška: 51 m

Aktuální stav počasí

Zpráva byla vytvořena před 6 minutami, v 11:35 UTC
Bezvětří
Teplota 20°C
Vlhkost vzduchu 100%
Tlak 1021 hPa
Viditelnost: 11.3 km

METAR: KSEM 241135Z AUTO 00000KT 7SM 20/20 A3014 RMK AO2

Čas: 06:41 (11:41 UTC)


TAF: chybějící

Stav a předpovědi počasí z více než 4 000 letišť (zprávy METAR a TAF).

Červené a žluté tečky na mapě představují dostupné meteorologické stanice.

Když kurzor umístíte na tečku, zobrazí se název stanice.

Pak kliknutím zobrazíte stav a předpověď počasí.

Chcete-li změnit mapu, kliknutím na zelené tlačítko se znaménkem +mapu přiblížíte, kliknutím na zelené tlačítko se znaménkem – mapu oddálíte a kliknutím na zelené šipky přejdete na sousední mapy.


METAR-TAF: